PORT of KOPER

Country: Slovenia Country: Slovenia (SI)
Latitude / Longitude: 45.56217° / 13.736355° Show on Map Show on Map
Local Time:  UTC +2
UN/LOCODE: SIKOP
Vessels in Port: 17
Expected Arrivals: 13

Recent Arrivals & Departures


Vessel Name
Arrival (UTC)
Arrival (LT)
Departure (UTC)
Departure (LT)
Vessel Type: Cargo Vessels  STADT SOLINGEN 2014-09-17 20:24:00 2014-09-17 22:24:00
Vessel Type: Tugs, Pilots etc  NEPTUN 2014-09-17 20:24:00 2014-09-17 22:24:00
Vessel Type: Tugs, Pilots etc  WOTAN 2014-09-17 20:24:00 2014-09-17 22:24:00
Vessel Type: Tugs, Pilots etc  SIRIUS 2014-09-17 20:22:00 2014-09-17 22:22:00
Vessel Type: Tugs, Pilots etc  WOTAN 2014-09-17 17:46:00 2014-09-17 19:46:00 2014-09-17 20:15:00 2014-09-17 22:15:00
Vessel Type: Tugs, Pilots etc  SIRIUS 2014-09-17 18:54:00 2014-09-17 20:54:00 2014-09-17 20:13:00 2014-09-17 22:13:00
Vessel Type: Tugs, Pilots etc  NEPTUN 2014-09-17 18:36:00 2014-09-17 20:36:00 2014-09-17 20:07:00 2014-09-17 22:07:00
Vessel Type: Tugs, Pilots etc  HERCULES 2014-09-17 18:53:00 2014-09-17 20:53:00 2014-09-17 19:26:00 2014-09-17 21:26:00
Vessel Type: Tugs, Pilots etc  PILOTI KP 1 2014-09-17 18:58:00 2014-09-17 20:58:00 2014-09-17 19:18:00 2014-09-17 21:18:00
Vessel Type: Tugs, Pilots etc  SIRIUS 2014-09-17 17:46:00 2014-09-17 19:46:00 2014-09-17 18:38:00 2014-09-17 20:38:00

Expected Arrivals


Vessel Name
Scheduled Arrival (UTC)
Scheduled Arrival (LT)
Estimated Arrival (UTC)
Estimated Arrival (LT)
Vessel Type: Cargo Vessels  BREMER MARTHA 2014-09-17 05:00:00 2014-09-17 07:00:00 2014-09-18 09:07:00 2014-09-18 11:07:00
Vessel Type: Cargo Vessels  WARNOW PORPOISE 2014-09-18 01:45:00 2014-09-18 03:45:00 2014-09-17 20:56:00 2014-09-17 22:56:00
Vessel Type: Cargo Vessels  HACI MEHMET KAPTAN 2014-09-18 11:00:00 2014-09-18 13:00:00 2014-09-18 12:32:00 2014-09-18 14:32:00
Vessel Type: Tankers  HELLAS PROGRESS 2014-09-18 16:30:00 2014-09-18 18:30:00 2014-09-19 11:25:00 2014-09-19 13:25:00
Vessel Type: Cargo Vessels  MSC CAITLIN 2014-09-19 03:00:00 2014-09-19 05:00:00 2014-09-20 04:39:00 2014-09-20 06:39:00
Vessel Type: Cargo Vessels  NEPTUNE KEFALONIA 2014-09-19 05:00:00 2014-09-19 07:00:00 2014-09-19 01:55:00 2014-09-19 03:55:00
Vessel Type: Cargo Vessels  DONG A METIS 2014-09-19 14:00:00 2014-09-19 16:00:00 2014-09-19 10:56:00 2014-09-19 12:56:00
Vessel Type: Tankers  STOLT SHEARWATER 2014-09-19 16:00:00 2014-09-19 18:00:00 2014-09-19 14:58:00 2014-09-19 16:58:00
Vessel Type: Cargo Vessels  SKS TWEED 2014-09-20 10:00:00 2014-09-20 12:00:00 2014-09-20 03:58:00 2014-09-20 05:58:00
Vessel Type: Cargo Vessels  ZIEMIA CIESZYNSKA 2014-09-20 22:00:00 2014-09-21 00:00:00 2014-09-20 21:48:00 2014-09-20 23:48:00

Wind Forecast


    
Time (UTC)
Speed
Direction
Temperature
2014-09-17 21:00:00 11 knots 83° 18°C
2014-09-18 00:00:00 11 knots 79° 18°C
2014-09-18 03:00:00 13 knots 77° 17°C
2014-09-18 06:00:00 14 knots 76° 17°C
2014-09-18 09:00:00 6 knots 74° 21°C
2014-09-18 12:00:00 3 knots 280° 21°C
2014-09-18 15:00:00 5 knots 255° 21°C
2014-09-18 18:00:00 0 knots 328° 21°C
2014-09-18 21:00:00 5 knots 83° 20°C
2014-09-19 00:00:00 7 knots 95° 20°C
2014-09-19 03:00:00 7 knots 97° 19°C
2014-09-19 06:00:00 6 knots 104° 19°C
2014-09-19 09:00:00 3 knots 253° 21°C
2014-09-19 12:00:00 5 knots 260° 21°C
2014-09-19 15:00:00 3 knots 40° 21°C
2014-09-19 18:00:00 4 knots 56° 21°C